sensor_id;sensor_type;location;lat;lon;timestamp;temperature;humidity
24260;DHT22;12384;48.112;18.418;2022-10-22T00:01:16;10.80;52.90
24260;DHT22;12384;48.112;18.418;2022-10-22T00:03:46;10.80;52.90
24260;DHT22;12384;48.112;18.418;2022-10-22T00:06:14;10.80;52.90
24260;DHT22;12384;48.112;18.418;2022-10-22T00:08:42;10.80;52.90
24260;DHT22;12384;48.112;18.418;2022-10-22T00:11:14;10.70;52.90
24260;DHT22;12384;48.112;18.418;2022-10-22T00:13:43;10.70;52.90
24260;DHT22;12384;48.112;18.418;2022-10-22T00:16:12;10.70;52.90
24260;DHT22;12384;48.112;18.418;2022-10-22T00:18:40;10.70;52.90
24260;DHT22;12384;48.112;18.418;2022-10-22T00:21:09;10.60;52.90
24260;DHT22;12384;48.112;18.418;2022-10-22T00:23:39;10.60;52.90
24260;DHT22;12384;48.112;18.418;2022-10-22T00:26:08;10.60;52.90
24260;DHT22;12384;48.112;18.418;2022-10-22T00:28:38;10.60;53.00
24260;DHT22;12384;48.112;18.418;2022-10-22T00:31:07;10.60;53.10
24260;DHT22;12384;48.112;18.418;2022-10-22T00:33:35;10.50;53.10
24260;DHT22;12384;48.112;18.418;2022-10-22T00:36:04;10.50;53.10
24260;DHT22;12384;48.112;18.418;2022-10-22T00:38:32;10.50;53.10
24260;DHT22;12384;48.112;18.418;2022-10-22T00:41:01;10.50;53.80
24260;DHT22;12384;48.112;18.418;2022-10-22T00:43:29;10.50;53.30
24260;DHT22;12384;48.112;18.418;2022-10-22T00:45:58;10.50;53.30
24260;DHT22;12384;48.112;18.418;2022-10-22T00:48:29;10.50;53.30
24260;DHT22;12384;48.112;18.418;2022-10-22T00:51:02;10.50;53.30
24260;DHT22;12384;48.112;18.418;2022-10-22T00:53:33;10.50;53.30
24260;DHT22;12384;48.112;18.418;2022-10-22T00:56:03;10.50;53.40
24260;DHT22;12384;48.112;18.418;2022-10-22T00:58:36;10.40;53.30
24260;DHT22;12384;48.112;18.418;2022-10-22T01:01:08;10.50;53.50
24260;DHT22;12384;48.112;18.418;2022-10-22T01:03:37;10.50;53.40
24260;DHT22;12384;48.112;18.418;2022-10-22T01:06:06;10.40;53.30
24260;DHT22;12384;48.112;18.418;2022-10-22T01:08:42;10.40;53.40
24260;DHT22;12384;48.112;18.418;2022-10-22T01:11:18;10.40;53.90
24260;DHT22;12384;48.112;18.418;2022-10-22T01:13:59;10.40;53.30
24260;DHT22;12384;48.112;18.418;2022-10-22T01:16:36;10.40;53.40
24260;DHT22;12384;48.112;18.418;2022-10-22T01:22:10;10.30;53.30
24260;DHT22;12384;48.112;18.418;2022-10-22T01:24:49;10.30;53.50
24260;DHT22;12384;48.112;18.418;2022-10-22T01:27:28;10.20;53.40
24260;DHT22;12384;48.112;18.418;2022-10-22T01:30:02;10.20;53.50
24260;DHT22;12384;48.112;18.418;2022-10-22T01:32:35;10.20;53.50
24260;DHT22;12384;48.112;18.418;2022-10-22T01:35:07;10.20;53.50
24260;DHT22;12384;48.112;18.418;2022-10-22T01:37:42;10.10;53.50
24260;DHT22;12384;48.112;18.418;2022-10-22T01:40:12;10.10;53.60
24260;DHT22;12384;48.112;18.418;2022-10-22T01:42:52;10.10;53.60
24260;DHT22;12384;48.112;18.418;2022-10-22T01:45:22;10.10;53.70
24260;DHT22;12384;48.112;18.418;2022-10-22T01:47:57;10.10;53.70
24260;DHT22;12384;48.112;18.418;2022-10-22T01:50:50;10.00;53.70
24260;DHT22;12384;48.112;18.418;2022-10-22T01:53:27;10.00;53.70
24260;DHT22;12384;48.112;18.418;2022-10-22T01:56:11;10.00;53.70
24260;DHT22;12384;48.112;18.418;2022-10-22T01:58:47;10.00;53.70
24260;DHT22;12384;48.112;18.418;2022-10-22T02:01:28;9.90;54.60
24260;DHT22;12384;48.112;18.418;2022-10-22T02:04:02;9.90;54.60
24260;DHT22;12384;48.112;18.418;2022-10-22T02:06:33;9.90;54.60
24260;DHT22;12384;48.112;18.418;2022-10-22T02:09:03;9.80;54.70
24260;DHT22;12384;48.112;18.418;2022-10-22T02:11:33;9.80;54.70
24260;DHT22;12384;48.112;18.418;2022-10-22T02:14:03;9.80;54.80
24260;DHT22;12384;48.112;18.418;2022-10-22T02:16:37;9.80;54.80
24260;DHT22;12384;48.112;18.418;2022-10-22T02:19:12;9.80;54.90
24260;DHT22;12384;48.112;18.418;2022-10-22T02:21:43;9.70;54.80
24260;DHT22;12384;48.112;18.418;2022-10-22T02:24:12;9.70;54.80
24260;DHT22;12384;48.112;18.418;2022-10-22T02:26:46;9.70;54.90
24260;DHT22;12384;48.112;18.418;2022-10-22T02:29:24;9.70;55.50
24260;DHT22;12384;48.112;18.418;2022-10-22T02:31:56;9.60;54.90
24260;DHT22;12384;48.112;18.418;2022-10-22T02:34:29;9.60;55.00
24260;DHT22;12384;48.112;18.418;2022-10-22T02:37:00;9.60;55.00
24260;DHT22;12384;48.112;18.418;2022-10-22T02:39:30;9.50;54.90
24260;DHT22;12384;48.112;18.418;2022-10-22T02:42:00;9.50;55.10
24260;DHT22;12384;48.112;18.418;2022-10-22T02:44:29;9.50;55.10
24260;DHT22;12384;48.112;18.418;2022-10-22T02:46:59;9.40;55.70
24260;DHT22;12384;48.112;18.418;2022-10-22T02:49:27;9.40;55.20
24260;DHT22;12384;48.112;18.418;2022-10-22T02:51:56;9.40;55.20
24260;DHT22;12384;48.112;18.418;2022-10-22T02:54:24;9.40;55.40
24260;DHT22;12384;48.112;18.418;2022-10-22T02:56:52;9.40;55.40
24260;DHT22;12384;48.112;18.418;2022-10-22T02:59:21;9.30;55.30
24260;DHT22;12384;48.112;18.418;2022-10-22T03:01:49;9.30;55.30
24260;DHT22;12384;48.112;18.418;2022-10-22T03:04:19;9.30;55.30
24260;DHT22;12384;48.112;18.418;2022-10-22T03:06:47;9.30;55.40
24260;DHT22;12384;48.112;18.418;2022-10-22T03:09:15;9.20;55.40
24260;DHT22;12384;48.112;18.418;2022-10-22T03:11:50;9.20;55.40
24260;DHT22;12384;48.112;18.418;2022-10-22T03:14:19;9.20;55.60
24260;DHT22;12384;48.112;18.418;2022-10-22T03:16:47;9.20;55.80
24260;DHT22;12384;48.112;18.418;2022-10-22T03:19:15;9.30;55.90
24260;DHT22;12384;48.112;18.418;2022-10-22T03:21:47;9.30;55.90
24260;DHT22;12384;48.112;18.418;2022-10-22T03:24:21;9.40;56.00
24260;DHT22;12384;48.112;18.418;2022-10-22T03:26:51;9.40;56.00
24260;DHT22;12384;48.112;18.418;2022-10-22T03:29:22;9.50;56.10
24260;DHT22;12384;48.112;18.418;2022-10-22T03:31:51;9.50;56.10
24260;DHT22;12384;48.112;18.418;2022-10-22T03:34:20;9.60;56.10
24260;DHT22;12384;48.112;18.418;2022-10-22T03:36:50;9.60;56.00
24260;DHT22;12384;48.112;18.418;2022-10-22T03:39:19;9.60;55.90
24260;DHT22;12384;48.112;18.418;2022-10-22T03:41:49;9.60;55.80
24260;DHT22;12384;48.112;18.418;2022-10-22T03:44:18;9.70;55.80
24260;DHT22;12384;48.112;18.418;2022-10-22T03:46:48;9.70;55.80
24260;DHT22;12384;48.112;18.418;2022-10-22T03:49:16;9.70;55.70
24260;DHT22;12384;48.112;18.418;2022-10-22T03:51:44;9.70;55.70
24260;DHT22;12384;48.112;18.418;2022-10-22T03:54:14;9.70;55.60
24260;DHT22;12384;48.112;18.418;2022-10-22T03:56:43;9.70;55.60
24260;DHT22;12384;48.112;18.418;2022-10-22T03:59:11;9.70;55.50
24260;DHT22;12384;48.112;18.418;2022-10-22T04:01:41;9.70;55.50
24260;DHT22;12384;48.112;18.418;2022-10-22T04:04:09;9.70;55.40
24260;DHT22;12384;48.112;18.418;2022-10-22T04:06:37;9.60;55.30
24260;DHT22;12384;48.112;18.418;2022-10-22T04:09:06;9.60;55.30
24260;DHT22;12384;48.112;18.418;2022-10-22T04:11:36;9.50;55.60
24260;DHT22;12384;48.112;18.418;2022-10-22T04:14:04;9.50;55.30
24260;DHT22;12384;48.112;18.418;2022-10-22T04:16:33;9.40;55.90
24260;DHT22;12384;48.112;18.418;2022-10-22T04:19:01;9.40;55.30
24260;DHT22;12384;48.112;18.418;2022-10-22T04:21:29;9.30;55.30
24260;DHT22;12384;48.112;18.418;2022-10-22T04:23:58;9.30;55.30
24260;DHT22;12384;48.112;18.418;2022-10-22T04:26:26;9.20;55.30
24260;DHT22;12384;48.112;18.418;2022-10-22T04:28:56;9.20;55.40
24260;DHT22;12384;48.112;18.418;2022-10-22T04:31:25;9.10;55.40
24260;DHT22;12384;48.112;18.418;2022-10-22T04:33:55;9.10;55.40
24260;DHT22;12384;48.112;18.418;2022-10-22T04:36:24;9.00;55.50
24260;DHT22;12384;48.112;18.418;2022-10-22T04:38:55;9.00;55.60
24260;DHT22;12384;48.112;18.418;2022-10-22T04:41:26;9.00;55.70
24260;DHT22;12384;48.112;18.418;2022-10-22T04:43:56;9.00;55.80
24260;DHT22;12384;48.112;18.418;2022-10-22T04:46:28;9.00;56.50
24260;DHT22;12384;48.112;18.418;2022-10-22T04:48:57;9.00;56.00
24260;DHT22;12384;48.112;18.418;2022-10-22T04:51:26;8.90;55.90
24260;DHT22;12384;48.112;18.418;2022-10-22T04:53:55;8.90;56.00
24260;DHT22;12384;48.112;18.418;2022-10-22T04:56:25;8.90;56.10
24260;DHT22;12384;48.112;18.418;2022-10-22T04:58:57;8.90;56.10
24260;DHT22;12384;48.112;18.418;2022-10-22T05:01:27;8.90;56.10
24260;DHT22;12384;48.112;18.418;2022-10-22T05:03:57;8.90;56.20
24260;DHT22;12384;48.112;18.418;2022-10-22T05:06:27;8.90;56.30
24260;DHT22;12384;48.112;18.418;2022-10-22T05:08:57;8.90;56.30
24260;DHT22;12384;48.112;18.418;2022-10-22T05:11:28;8.90;56.30
24260;DHT22;12384;48.112;18.418;2022-10-22T05:13:59;8.90;56.30
24260;DHT22;12384;48.112;18.418;2022-10-22T05:16:28;8.90;56.30
24260;DHT22;12384;48.112;18.418;2022-10-22T05:18:58;8.80;56.30
24260;DHT22;12384;48.112;18.418;2022-10-22T05:21:27;8.80;56.40
24260;DHT22;12384;48.112;18.418;2022-10-22T05:23:56;8.80;56.50
24260;DHT22;12384;48.112;18.418;2022-10-22T05:26:27;8.80;56.50
24260;DHT22;12384;48.112;18.418;2022-10-22T05:28:55;8.80;56.70
24260;DHT22;12384;48.112;18.418;2022-10-22T05:31:25;8.80;56.70
24260;DHT22;12384;48.112;18.418;2022-10-22T05:33:55;8.80;56.70
24260;DHT22;12384;48.112;18.418;2022-10-22T05:36:23;8.80;56.60
24260;DHT22;12384;48.112;18.418;2022-10-22T05:38:52;8.80;56.70
24260;DHT22;12384;48.112;18.418;2022-10-22T05:41:22;8.80;56.90
24260;DHT22;12384;48.112;18.418;2022-10-22T05:43:54;8.80;56.90
24260;DHT22;12384;48.112;18.418;2022-10-22T05:46:26;8.80;57.00
24260;DHT22;12384;48.112;18.418;2022-10-22T05:48:56;8.80;57.10
24260;DHT22;12384;48.112;18.418;2022-10-22T05:51:26;8.80;57.10
24260;DHT22;12384;48.112;18.418;2022-10-22T05:53:57;8.90;57.20
24260;DHT22;12384;48.112;18.418;2022-10-22T05:56:26;8.90;57.30
24260;DHT22;12384;48.112;18.418;2022-10-22T05:58:55;9.00;57.50
24260;DHT22;12384;48.112;18.418;2022-10-22T06:01:27;9.10;57.80
24260;DHT22;12384;48.112;18.418;2022-10-22T06:03:57;9.30;58.30
24260;DHT22;12384;48.112;18.418;2022-10-22T06:06:28;9.60;58.70
24260;DHT22;12384;48.112;18.418;2022-10-22T06:09:01;10.00;58.20
24260;DHT22;12384;48.112;18.418;2022-10-22T06:11:31;10.30;57.90
24260;DHT22;12384;48.112;18.418;2022-10-22T06:14:02;10.60;57.60
24260;DHT22;12384;48.112;18.418;2022-10-22T06:16:32;10.90;57.30
24260;DHT22;12384;48.112;18.418;2022-10-22T06:19:00;11.10;56.90
24260;DHT22;12384;48.112;18.418;2022-10-22T06:21:30;11.40;56.50
24260;DHT22;12384;48.112;18.418;2022-10-22T06:23:59;11.50;55.60
24260;DHT22;12384;48.112;18.418;2022-10-22T06:26:28;11.80;55.30
24260;DHT22;12384;48.112;18.418;2022-10-22T06:28:57;12.00;54.70
24260;DHT22;12384;48.112;18.418;2022-10-22T06:31:26;12.20;54.20
24260;DHT22;12384;48.112;18.418;2022-10-22T06:33:55;12.30;53.40
24260;DHT22;12384;48.112;18.418;2022-10-22T06:36:24;12.50;52.80
24260;DHT22;12384;48.112;18.418;2022-10-22T06:38:53;12.50;52.10
24260;DHT22;12384;48.112;18.418;2022-10-22T06:41:22;12.60;51.90
24260;DHT22;12384;48.112;18.418;2022-10-22T06:43:56;12.60;51.60
24260;DHT22;12384;48.112;18.418;2022-10-22T06:46:25;12.70;51.30
24260;DHT22;12384;48.112;18.418;2022-10-22T06:48:56;12.70;51.00
24260;DHT22;12384;48.112;18.418;2022-10-22T06:51:26;12.70;51.50
24260;DHT22;12384;48.112;18.418;2022-10-22T06:53:55;12.70;50.70
24260;DHT22;12384;48.112;18.418;2022-10-22T06:56:26;12.70;50.50
24260;DHT22;12384;48.112;18.418;2022-10-22T06:58:56;12.70;50.40
24260;DHT22;12384;48.112;18.418;2022-10-22T07:01:30;12.60;50.20
24260;DHT22;12384;48.112;18.418;2022-10-22T07:04:00;12.60;50.20
24260;DHT22;12384;48.112;18.418;2022-10-22T07:06:29;12.60;50.20
24260;DHT22;12384;48.112;18.418;2022-10-22T07:08:58;12.60;50.40
24260;DHT22;12384;48.112;18.418;2022-10-22T07:11:29;12.60;50.30
24260;DHT22;12384;48.112;18.418;2022-10-22T07:13:58;12.60;50.40
24260;DHT22;12384;48.112;18.418;2022-10-22T07:16:27;12.60;50.40
24260;DHT22;12384;48.112;18.418;2022-10-22T07:18:59;12.70;50.30
24260;DHT22;12384;48.112;18.418;2022-10-22T07:21:28;12.70;50.10
24260;DHT22;12384;48.112;18.418;2022-10-22T07:23:57;12.70;50.60
24260;DHT22;12384;48.112;18.418;2022-10-22T07:26:27;12.80;50.30
24260;DHT22;12384;48.112;18.418;2022-10-22T07:28:59;13.00;51.00
24260;DHT22;12384;48.112;18.418;2022-10-22T07:31:27;13.50;51.30
24260;DHT22;12384;48.112;18.418;2022-10-22T07:33:56;13.90;50.90
24260;DHT22;12384;48.112;18.418;2022-10-22T07:36:26;14.20;50.40
24260;DHT22;12384;48.112;18.418;2022-10-22T07:38:55;14.50;49.60
24260;DHT22;12384;48.112;18.418;2022-10-22T07:41:25;14.70;49.30
24260;DHT22;12384;48.112;18.418;2022-10-22T07:43:54;15.00;49.40
24260;DHT22;12384;48.112;18.418;2022-10-22T07:46:22;15.20;49.50
24260;DHT22;12384;48.112;18.418;2022-10-22T07:48:51;15.50;49.10
24260;DHT22;12384;48.112;18.418;2022-10-22T07:51:20;15.80;49.10
24260;DHT22;12384;48.112;18.418;2022-10-22T07:53:49;16.20;48.90
24260;DHT22;12384;48.112;18.418;2022-10-22T07:56:19;16.50;48.70
24260;DHT22;12384;48.112;18.418;2022-10-22T07:58:47;16.90;47.80
24260;DHT22;12384;48.112;18.418;2022-10-22T08:01:16;17.10;46.80
24260;DHT22;12384;48.112;18.418;2022-10-22T08:03:44;17.20;45.90
24260;DHT22;12384;48.112;18.418;2022-10-22T08:06:13;17.10;44.90
24260;DHT22;12384;48.112;18.418;2022-10-22T08:08:41;16.90;44.30
24260;DHT22;12384;48.112;18.418;2022-10-22T08:11:13;16.60;44.00
24260;DHT22;12384;48.112;18.418;2022-10-22T08:13:41;16.30;43.90
24260;DHT22;12384;48.112;18.418;2022-10-22T08:16:12;15.90;43.70
24260;DHT22;12384;48.112;18.418;2022-10-22T08:18:40;15.60;43.90
24260;DHT22;12384;48.112;18.418;2022-10-22T08:21:09;15.20;44.10
24260;DHT22;12384;48.112;18.418;2022-10-22T08:23:38;15.00;44.50
24260;DHT22;12384;48.112;18.418;2022-10-22T08:26:06;14.70;44.80
24260;DHT22;12384;48.112;18.418;2022-10-22T08:28:36;14.60;45.30
24260;DHT22;12384;48.112;18.418;2022-10-22T08:31:05;14.40;45.50
24260;DHT22;12384;48.112;18.418;2022-10-22T08:33:35;14.30;45.80
24260;DHT22;12384;48.112;18.418;2022-10-22T08:36:05;14.20;46.20
24260;DHT22;12384;48.112;18.418;2022-10-22T08:38:33;14.10;46.50
24260;DHT22;12384;48.112;18.418;2022-10-22T08:41:08;14.00;46.80
24260;DHT22;12384;48.112;18.418;2022-10-22T08:44:08;14.00;47.10
24260;DHT22;12384;48.112;18.418;2022-10-22T08:46:58;13.90;47.20
24260;DHT22;12384;48.112;18.418;2022-10-22T08:49:33;13.90;47.40
24260;DHT22;12384;48.112;18.418;2022-10-22T08:52:11;13.80;47.50
24260;DHT22;12384;48.112;18.418;2022-10-22T08:54:48;13.80;47.60
24260;DHT22;12384;48.112;18.418;2022-10-22T08:57:34;13.70;47.60
24260;DHT22;12384;48.112;18.418;2022-10-22T09:00:12;13.70;47.80
24260;DHT22;12384;48.112;18.418;2022-10-22T09:02:53;13.60;48.00
24260;DHT22;12384;48.112;18.418;2022-10-22T09:05:32;13.50;48.00
24260;DHT22;12384;48.112;18.418;2022-10-22T09:08:02;13.50;48.20
24260;DHT22;12384;48.112;18.418;2022-10-22T09:10:34;13.40;48.30
24260;DHT22;12384;48.112;18.418;2022-10-22T09:13:03;13.40;48.40
24260;DHT22;12384;48.112;18.418;2022-10-22T09:15:33;13.30;48.60
24260;DHT22;12384;48.112;18.418;2022-10-22T09:18:23;13.30;48.60
24260;DHT22;12384;48.112;18.418;2022-10-22T09:20:58;13.30;48.80
24260;DHT22;12384;48.112;18.418;2022-10-22T09:23:32;13.30;48.90
24260;DHT22;12384;48.112;18.418;2022-10-22T09:26:03;13.30;49.00
24260;DHT22;12384;48.112;18.418;2022-10-22T09:28:39;13.30;49.10
24260;DHT22;12384;48.112;18.418;2022-10-22T09:31:11;13.30;49.30
24260;DHT22;12384;48.112;18.418;2022-10-22T09:33:41;13.30;49.40
24260;DHT22;12384;48.112;18.418;2022-10-22T09:36:14;13.30;49.40
24260;DHT22;12384;48.112;18.418;2022-10-22T09:38:46;13.40;49.50
24260;DHT22;12384;48.112;18.418;2022-10-22T09:41:15;13.40;50.10
24260;DHT22;12384;48.112;18.418;2022-10-22T09:43:45;13.40;49.60
24260;DHT22;12384;48.112;18.418;2022-10-22T09:46:17;13.40;49.70
24260;DHT22;12384;48.112;18.418;2022-10-22T09:48:47;13.40;49.80
24260;DHT22;12384;48.112;18.418;2022-10-22T09:51:19;13.40;49.80
24260;DHT22;12384;48.112;18.418;2022-10-22T09:53:56;13.50;49.90
24260;DHT22;12384;48.112;18.418;2022-10-22T09:56:25;13.50;50.00
24260;DHT22;12384;48.112;18.418;2022-10-22T09:58:56;13.50;50.10
24260;DHT22;12384;48.112;18.418;2022-10-22T10:01:28;13.60;50.20
24260;DHT22;12384;48.112;18.418;2022-10-22T10:04:02;13.60;50.00
24260;DHT22;12384;48.112;18.418;2022-10-22T10:06:38;13.70;50.00
24260;DHT22;12384;48.112;18.418;2022-10-22T10:09:13;13.70;50.00
24260;DHT22;12384;48.112;18.418;2022-10-22T10:11:45;13.80;50.00
24260;DHT22;12384;48.112;18.418;2022-10-22T10:14:20;13.80;50.00
24260;DHT22;12384;48.112;18.418;2022-10-22T10:16:57;13.90;50.00
24260;DHT22;12384;48.112;18.418;2022-10-22T10:19:38;13.90;49.90
24260;DHT22;12384;48.112;18.418;2022-10-22T10:22:17;14.00;49.90
24260;DHT22;12384;48.112;18.418;2022-10-22T10:25:00;14.00;49.80
24260;DHT22;12384;48.112;18.418;2022-10-22T10:27:35;14.10;49.80
24260;DHT22;12384;48.112;18.418;2022-10-22T10:30:10;14.10;49.60
24260;DHT22;12384;48.112;18.418;2022-10-22T10:33:04;14.10;49.60
24260;DHT22;12384;48.112;18.418;2022-10-22T10:35:45;14.20;49.70
24260;DHT22;12384;48.112;18.418;2022-10-22T10:38:31;14.20;49.70
24260;DHT22;12384;48.112;18.418;2022-10-22T10:41:15;14.30;49.80
24260;DHT22;12384;48.112;18.418;2022-10-22T10:43:54;14.30;49.80
24260;DHT22;12384;48.112;18.418;2022-10-22T10:46:32;14.30;49.80
24260;DHT22;12384;48.112;18.418;2022-10-22T10:49:09;14.40;49.90
24260;DHT22;12384;48.112;18.418;2022-10-22T10:51:45;14.50;50.00
24260;DHT22;12384;48.112;18.418;2022-10-22T10:54:27;14.50;49.80
24260;DHT22;12384;48.112;18.418;2022-10-22T10:57:02;14.60;49.70
24260;DHT22;12384;48.112;18.418;2022-10-22T10:59:42;14.60;49.60
24260;DHT22;12384;48.112;18.418;2022-10-22T11:02:51;14.60;49.50
24260;DHT22;12384;48.112;18.418;2022-10-22T11:05:31;14.60;49.40
24260;DHT22;12384;48.112;18.418;2022-10-22T11:08:04;14.60;49.40
24260;DHT22;12384;48.112;18.418;2022-10-22T11:10:38;14.60;49.30
24260;DHT22;12384;48.112;18.418;2022-10-22T11:13:14;14.60;49.30
24260;DHT22;12384;48.112;18.418;2022-10-22T11:15:47;14.60;49.20
24260;DHT22;12384;48.112;18.418;2022-10-22T11:18:26;14.60;49.20
24260;DHT22;12384;48.112;18.418;2022-10-22T11:21:12;14.60;49.10
24260;DHT22;12384;48.112;18.418;2022-10-22T11:23:45;14.60;49.20
24260;DHT22;12384;48.112;18.418;2022-10-22T11:26:22;14.60;49.20
24260;DHT22;12384;48.112;18.418;2022-10-22T11:28:52;14.60;49.20
24260;DHT22;12384;48.112;18.418;2022-10-22T11:31:23;14.60;49.30
24260;DHT22;12384;48.112;18.418;2022-10-22T11:33:56;14.60;49.30
24260;DHT22;12384;48.112;18.418;2022-10-22T11:36:37;14.60;49.30
24260;DHT22;12384;48.112;18.418;2022-10-22T11:39:06;14.60;49.40
24260;DHT22;12384;48.112;18.418;2022-10-22T11:41:35;14.60;49.60
24260;DHT22;12384;48.112;18.418;2022-10-22T11:44:20;14.60;49.60
24260;DHT22;12384;48.112;18.418;2022-10-22T11:46:54;14.60;49.70
24260;DHT22;12384;48.112;18.418;2022-10-22T11:49:25;14.60;49.90
24260;DHT22;12384;48.112;18.418;2022-10-22T11:52:23;14.60;50.10
24260;DHT22;12384;48.112;18.418;2022-10-22T11:54:56;14.60;50.50
24260;DHT22;12384;48.112;18.418;2022-10-22T11:57:27;14.60;50.70
24260;DHT22;12384;48.112;18.418;2022-10-22T11:59:57;14.60;50.90
24260;DHT22;12384;48.112;18.418;2022-10-22T12:02:38;14.60;51.10
24260;DHT22;12384;48.112;18.418;2022-10-22T12:05:34;14.60;51.30
24260;DHT22;12384;48.112;18.418;2022-10-22T12:08:21;14.60;51.40
24260;DHT22;12384;48.112;18.418;2022-10-22T12:11:05;14.60;51.60
24260;DHT22;12384;48.112;18.418;2022-10-22T12:14:03;14.50;51.80
24260;DHT22;12384;48.112;18.418;2022-10-22T12:16:40;14.50;52.10
24260;DHT22;12384;48.112;18.418;2022-10-22T12:19:26;14.50;52.30
24260;DHT22;12384;48.112;18.418;2022-10-22T12:21:58;14.50;52.50
24260;DHT22;12384;48.112;18.418;2022-10-22T12:24:31;14.50;52.60
24260;DHT22;12384;48.112;18.418;2022-10-22T12:27:01;14.40;53.30
24260;DHT22;12384;48.112;18.418;2022-10-22T12:29:31;14.40;52.80
24260;DHT22;12384;48.112;18.418;2022-10-22T12:32:03;14.30;52.90
24260;DHT22;12384;48.112;18.418;2022-10-22T12:34:31;14.30;53.10
24260;DHT22;12384;48.112;18.418;2022-10-22T12:37:03;14.20;53.90
24260;DHT22;12384;48.112;18.418;2022-10-22T12:39:34;14.20;53.60
24260;DHT22;12384;48.112;18.418;2022-10-22T12:42:04;14.10;53.70
24260;DHT22;12384;48.112;18.418;2022-10-22T12:44:33;14.10;54.00
24260;DHT22;12384;48.112;18.418;2022-10-22T12:47:01;14.10;54.10
24260;DHT22;12384;48.112;18.418;2022-10-22T12:49:34;14.00;54.10
24260;DHT22;12384;48.112;18.418;2022-10-22T12:52:05;14.00;54.20
24260;DHT22;12384;48.112;18.418;2022-10-22T12:54:40;13.90;54.30
24260;DHT22;12384;48.112;18.418;2022-10-22T12:57:12;13.90;54.50
24260;DHT22;12384;48.112;18.418;2022-10-22T12:59:43;13.90;54.60
24260;DHT22;12384;48.112;18.418;2022-10-22T13:02:19;13.80;54.70
24260;DHT22;12384;48.112;18.418;2022-10-22T13:05:19;13.80;54.90
24260;DHT22;12384;48.112;18.418;2022-10-22T13:07:50;13.80;55.00
24260;DHT22;12384;48.112;18.418;2022-10-22T13:10:24;13.70;55.10
24260;DHT22;12384;48.112;18.418;2022-10-22T13:12:55;13.70;54.70
24260;DHT22;12384;48.112;18.418;2022-10-22T13:15:36;13.70;55.40
24260;DHT22;12384;48.112;18.418;2022-10-22T13:18:15;13.70;55.60
24260;DHT22;12384;48.112;18.418;2022-10-22T13:20:55;13.60;55.70
24260;DHT22;12384;48.112;18.418;2022-10-22T13:23:26;13.60;55.90
24260;DHT22;12384;48.112;18.418;2022-10-22T13:25:59;13.60;56.00
24260;DHT22;12384;48.112;18.418;2022-10-22T13:28:29;13.60;56.10
24260;DHT22;12384;48.112;18.418;2022-10-22T13:31:00;13.60;56.30
24260;DHT22;12384;48.112;18.418;2022-10-22T13:33:32;13.60;56.50
24260;DHT22;12384;48.112;18.418;2022-10-22T13:36:02;13.60;56.60
24260;DHT22;12384;48.112;18.418;2022-10-22T13:38:30;13.60;56.80
24260;DHT22;12384;48.112;18.418;2022-10-22T13:41:00;13.70;57.00
24260;DHT22;12384;48.112;18.418;2022-10-22T13:43:30;13.70;57.00
24260;DHT22;12384;48.112;18.418;2022-10-22T13:45:59;13.70;57.10
24260;DHT22;12384;48.112;18.418;2022-10-22T13:48:28;13.70;57.20
24260;DHT22;12384;48.112;18.418;2022-10-22T13:50:57;13.70;57.30
24260;DHT22;12384;48.112;18.418;2022-10-22T13:53:27;13.70;57.30
24260;DHT22;12384;48.112;18.418;2022-10-22T13:55:57;13.70;57.30
24260;DHT22;12384;48.112;18.418;2022-10-22T13:58:26;13.70;57.30
24260;DHT22;12384;48.112;18.418;2022-10-22T14:00:57;13.70;57.40
24260;DHT22;12384;48.112;18.418;2022-10-22T14:03:29;13.70;57.40
24260;DHT22;12384;48.112;18.418;2022-10-22T14:05:59;13.70;57.40
24260;DHT22;12384;48.112;18.418;2022-10-22T14:08:28;13.60;57.40
24260;DHT22;12384;48.112;18.418;2022-10-22T14:10:56;13.60;57.50
24260;DHT22;12384;48.112;18.418;2022-10-22T14:13:26;13.60;57.50
24260;DHT22;12384;48.112;18.418;2022-10-22T14:15:54;13.60;57.70
24260;DHT22;12384;48.112;18.418;2022-10-22T14:18:25;13.50;57.70
24260;DHT22;12384;48.112;18.418;2022-10-22T14:20:59;13.50;57.90
24260;DHT22;12384;48.112;18.418;2022-10-22T14:23:31;13.50;58.00
24260;DHT22;12384;48.112;18.418;2022-10-22T14:26:00;13.50;58.10
24260;DHT22;12384;48.112;18.418;2022-10-22T14:28:30;13.50;58.20
24260;DHT22;12384;48.112;18.418;2022-10-22T14:31:12;13.40;58.10
24260;DHT22;12384;48.112;18.418;2022-10-22T14:33:40;13.40;58.30
24260;DHT22;12384;48.112;18.418;2022-10-22T14:36:10;13.40;58.40
24260;DHT22;12384;48.112;18.418;2022-10-22T14:38:40;13.30;58.50
24260;DHT22;12384;48.112;18.418;2022-10-22T14:41:16;13.30;58.70
24260;DHT22;12384;48.112;18.418;2022-10-22T14:43:47;13.30;58.80
24260;DHT22;12384;48.112;18.418;2022-10-22T14:46:16;13.30;59.00
24260;DHT22;12384;48.112;18.418;2022-10-22T14:48:44;13.20;59.00
24260;DHT22;12384;48.112;18.418;2022-10-22T14:51:15;13.20;59.10
24260;DHT22;12384;48.112;18.418;2022-10-22T14:53:44;13.20;59.20
24260;DHT22;12384;48.112;18.418;2022-10-22T14:56:14;13.20;59.30
24260;DHT22;12384;48.112;18.418;2022-10-22T14:58:43;13.10;59.50
24260;DHT22;12384;48.112;18.418;2022-10-22T15:01:13;13.10;59.50
24260;DHT22;12384;48.112;18.418;2022-10-22T15:03:41;13.00;59.70
24260;DHT22;12384;48.112;18.418;2022-10-22T15:06:10;13.00;59.80
24260;DHT22;12384;48.112;18.418;2022-10-22T15:08:38;12.90;59.90
24260;DHT22;12384;48.112;18.418;2022-10-22T15:11:09;12.90;60.00
24260;DHT22;12384;48.112;18.418;2022-10-22T15:13:38;12.80;60.20
24260;DHT22;12384;48.112;18.418;2022-10-22T15:16:14;12.80;60.50
24260;DHT22;12384;48.112;18.418;2022-10-22T15:18:44;12.80;60.70
24260;DHT22;12384;48.112;18.418;2022-10-22T15:21:14;12.70;60.90
24260;DHT22;12384;48.112;18.418;2022-10-22T15:23:43;12.70;61.20
24260;DHT22;12384;48.112;18.418;2022-10-22T15:26:12;12.70;61.50
24260;DHT22;12384;48.112;18.418;2022-10-22T15:28:41;12.60;61.70
24260;DHT22;12384;48.112;18.418;2022-10-22T15:31:11;12.60;62.00
24260;DHT22;12384;48.112;18.418;2022-10-22T15:33:41;12.60;62.40
24260;DHT22;12384;48.112;18.418;2022-10-22T15:36:13;12.50;62.70
24260;DHT22;12384;48.112;18.418;2022-10-22T15:38:42;12.50;63.00
24260;DHT22;12384;48.112;18.418;2022-10-22T15:41:11;12.50;63.20
24260;DHT22;12384;48.112;18.418;2022-10-22T15:43:40;12.50;63.50
24260;DHT22;12384;48.112;18.418;2022-10-22T15:46:11;12.50;63.80
24260;DHT22;12384;48.112;18.418;2022-10-22T15:48:39;12.40;64.20
24260;DHT22;12384;48.112;18.418;2022-10-22T15:51:11;12.40;64.40
24260;DHT22;12384;48.112;18.418;2022-10-22T15:53:40;12.40;64.70